Time;durP1;ratioP1;P1;durP2;ratioP2;P2;SDS_P1;SDS_P2;PMS_P1;PMS_P2;Temp;Humidity;BMP_temperature;BMP_pressure;BME280_temperature;BME280_humidity;BME280_pressure;Samples;Min_cycle;Max_cycle;Signal;HPM_P1;HPM_P2
2023/02/27 00:00:58;;;;;;;6.83;2.20;;;;;;;-4.33;100.00;101640.75;5007832;28;20026;-70
2023/02/27 00:03:24;;;;;;;7.57;2.40;;;;;;;-4.35;100.00;101639.72;5010356;28;20037;-69
2023/02/27 00:05:49;;;;;;;9.23;2.73;;;;;;;-4.41;100.00;101632.47;5011828;28;20030;-70
2023/02/27 00:08:15;;;;;;;6.77;2.30;;;;;;;-4.43;100.00;101631.47;5012472;28;20408;-70
2023/02/27 00:10:40;;;;;;;7.97;2.57;;;;;;;-4.38;100.00;101629.19;5012252;28;20085;-70
2023/02/27 00:13:05;;;;;;;8.10;2.60;;;;;;;-4.35;100.00;101629.41;5012362;28;20049;-70
2023/02/27 00:15:31;;;;;;;7.27;2.30;;;;;;;-4.32;100.00;101623.59;5011675;28;20042;-70
2023/02/27 00:18:00;;;;;;;10.33;3.23;;;;;;;-4.30;100.00;101622.03;5012348;28;20033;-70
2023/02/27 00:20:26;;;;;;;5.97;2.23;;;;;;;-4.30;100.00;101624.59;5010075;28;20095;-70
2023/02/27 00:22:51;;;;;;;4.93;2.40;;;;;;;-4.30;100.00;101629.75;5012116;28;20042;-70
2023/02/27 00:25:17;;;;;;;4.80;1.70;;;;;;;-4.33;100.00;101633.00;5004448;28;20044;-70
2023/02/27 00:27:43;;;;;;;6.37;2.00;;;;;;;-4.35;100.00;101629.41;5011942;28;20068;-69
2023/02/27 00:30:11;;;;;;;7.20;2.30;;;;;;;-4.34;100.00;101625.19;5011926;28;20033;-69
2023/02/27 00:32:37;;;;;;;6.63;2.00;;;;;;;-4.42;100.00;101619.47;5012057;28;20100;-70
2023/02/27 00:35:03;;;;;;;5.67;2.07;;;;;;;-4.42;100.00;101622.06;5012403;28;20748;-69
2023/02/27 00:37:29;;;;;;;5.23;1.80;;;;;;;-4.43;100.00;101623.75;5010064;28;20459;-69
2023/02/27 00:39:55;;;;;;;7.37;1.90;;;;;;;-4.44;100.00;101623.63;5011794;28;20030;-70
2023/02/27 00:42:21;;;;;;;4.70;1.73;;;;;;;-4.43;100.00;101621.16;5012080;28;20480;-70
2023/02/27 00:44:46;;;;;;;6.10;2.00;;;;;;;-4.43;100.00;101620.25;5011997;28;20540;-69
2023/02/27 00:47:12;;;;;;;5.37;1.70;;;;;;;-4.45;100.00;101627.00;4993230;28;20400;-70
2023/02/27 00:49:38;;;;;;;6.13;1.77;;;;;;;-4.46;100.00;101626.06;5011830;28;20034;-70
2023/02/27 00:52:04;;;;;;;6.07;1.83;;;;;;;-4.45;100.00;101627.00;4992405;28;20069;-69
2023/02/27 00:54:29;;;;;;;7.43;2.23;;;;;;;-4.47;100.00;101629.44;5011777;28;20139;-70
2023/02/27 00:56:54;;;;;;;7.47;2.53;;;;;;;-4.47;100.00;101628.56;4993500;28;20065;-70
2023/02/27 00:59:20;;;;;;;12.50;2.37;;;;;;;-4.46;100.00;101630.34;4993613;28;20042;-69
2023/02/27 01:01:45;;;;;;;7.50;2.00;;;;;;;-4.48;100.00;101635.41;4993930;28;20030;-69
2023/02/27 01:04:11;;;;;;;5.07;1.47;;;;;;;-4.49;100.00;101631.00;5011562;28;20038;-70
2023/02/27 01:06:36;;;;;;;5.80;1.87;;;;;;;-4.47;100.00;101637.19;5010840;28;20034;-69
2023/02/27 01:09:02;;;;;;;5.33;2.03;;;;;;;-4.48;100.00;101626.75;5011455;28;20513;-70
2023/02/27 01:11:28;;;;;;;7.57;1.90;;;;;;;-4.51;100.00;101630.00;5011333;28;20117;-70
2023/02/27 01:13:53;;;;;;;9.27;2.30;;;;;;;-4.46;100.00;101628.66;4993972;28;20500;-69
2023/02/27 01:16:19;;;;;;;4.73;1.80;;;;;;;-4.32;100.00;101628.75;5010840;28;20540;-70
2023/02/27 01:18:44;;;;;;;6.33;2.23;;;;;;;-4.17;100.00;101624.66;5011491;28;20374;-70
2023/02/27 01:21:09;;;;;;;5.50;1.83;;;;;;;-4.04;100.00;101623.84;5010098;28;20400;-70
2023/02/27 01:23:35;;;;;;;8.07;2.70;;;;;;;-3.89;100.00;101619.75;5011170;28;20444;-70
2023/02/27 01:26:00;;;;;;;8.13;2.27;;;;;;;-3.88;100.00;101623.25;4998142;28;20400;-70
2023/02/27 01:28:25;;;;;;;7.30;2.20;;;;;;;-3.77;100.00;101618.03;4984901;28;20527;-70
2023/02/27 01:30:51;;;;;;;5.83;1.70;;;;;;;-3.62;100.00;101613.00;5010975;28;20442;-70
2023/02/27 01:33:16;;;;;;;8.47;1.90;;;;;;;-3.52;100.00;101611.97;5001562;28;20412;-70
2023/02/27 01:35:41;;;;;;;6.77;1.43;;;;;;;-3.41;100.00;101615.25;5007425;28;20645;-70
2023/02/27 01:38:12;;;;;;;4.40;1.70;;;;;;;-3.25;100.00;101617.19;5011149;28;20440;-70
2023/02/27 01:40:41;;;;;;;5.40;1.58;;;;;;;-3.08;100.00;101614.94;4979481;28;20037;-69
2023/02/27 01:43:13;;;;;;;5.93;1.83;;;;;;;-2.99;100.00;101618.91;4993535;28;20069;-69
2023/02/27 01:45:40;;;;;;;4.27;1.50;;;;;;;-2.98;100.00;101616.44;4993195;28;20116;-70
2023/02/27 01:48:29;;;;;;;4.87;1.40;;;;;;;-2.98;100.00;101612.97;4993577;28;20109;-70
2023/02/27 01:51:00;;;;;;;6.37;1.87;;;;;;;-2.84;100.00;101625.09;4980763;28;20113;-69
2023/02/27 01:53:27;;;;;;;5.67;2.00;;;;;;;-2.77;100.00;101622.13;5008398;28;20034;-69
2023/02/27 01:55:58;;;;;;;7.20;1.83;;;;;;;-2.63;100.00;101624.69;5010410;28;20428;-69
2023/02/27 01:58:23;;;;;;;5.77;1.57;;;;;;;-2.52;100.00;101629.75;4993559;28;20034;-69
2023/02/27 02:00:50;;;;;;;5.10;1.67;;;;;;;-2.40;100.00;101634.81;5010950;28;20101;-69
2023/02/27 02:03:22;;;;;;;5.50;1.73;;;;;;;-2.43;100.00;101627.75;4993404;28;20440;-69
2023/02/27 02:05:50;;;;;;;;;;;;;;;-2.43;100.00;101624.28;4993319;28;20080;-69
2023/02/27 02:08:18;;;;;;;3.40;1.20;;;;;;;-2.45;100.00;101625.88;4993193;28;19960;-68
2023/02/27 02:10:46;;;;;;;3.97;1.40;;;;;;;-2.37;100.00;101629.84;5009515;28;20040;-69
2023/02/27 02:13:11;;;;;;;5.70;1.73;;;;;;;-2.33;100.00;101630.91;5014555;28;20124;-69
2023/02/27 02:15:46;;;;;;;3.97;1.30;;;;;;;-2.25;100.00;101633.22;5013993;28;20066;-69
2023/02/27 02:18:23;;;;;;;2.83;1.00;;;;;;;-2.23;100.00;101628.13;5014588;28;20165;-69
2023/02/27 02:21:22;;;;;;;5.23;1.80;;;;;;;-2.11;100.00;101615.97;5001883;28;20050;-69
2023/02/27 02:24:11;;;;;;;3.77;1.43;;;;;;;-2.01;100.00;101620.00;5010531;28;20037;-69
2023/02/27 02:26:47;;;;;;;5.03;1.30;;;;;;;-1.98;100.00;101615.03;5008657;28;20053;-69
2023/02/27 02:29:48;;;;;;;6.17;1.37;;;;;;;-1.83;100.00;101618.56;4990957;28;20038;-69
2023/02/27 02:32:36;;;;;;;3.43;1.37;;;;;;;-1.61;100.00;101606.91;5007187;28;20041;-69
2023/02/27 02:35:39;;;;;;;3.20;1.10;;;;;;;-1.51;100.00;101604.06;5012550;28;20041;-69
2023/02/27 02:38:26;;;;;;;3.97;0.88;;;;;;;-1.41;100.00;101606.41;4981460;28;20030;-69
2023/02/27 02:41:13;;;;;;;5.63;1.60;;;;;;;-1.32;100.00;101604.34;5012416;28;20034;-69
2023/02/27 02:43:56;;;;;;;3.80;1.17;;;;;;;-1.19;100.00;101605.06;5013595;28;20029;-70
2023/02/27 02:46:48;;;;;;;5.43;1.17;;;;;;;-1.17;100.00;101611.25;5007380;28;20049;-70
2023/02/27 02:49:17;;;;;;;2.47;0.82;;;;;;;-1.17;100.00;101612.13;5007661;28;20401;-70
2023/02/27 02:52:01;;;;;;;3.97;1.30;;;;;;;-1.14;100.00;101596.75;5010325;28;20030;-70
2023/02/27 02:54:47;;;;;;;1.93;1.00;;;;;;;-1.05;100.00;101598.09;5013973;28;20041;-70
2023/02/27 02:57:19;;;;;;;4.73;1.17;;;;;;;-0.98;100.00;101603.72;4993354;28;20561;-69
2023/02/27 02:59:52;;;;;;;3.05;1.20;;;;;;;-0.98;100.00;101610.59;5013529;28;20037;-70
2023/02/27 03:02:20;;;;;;;;;;;;;;;-0.85;100.00;101614.81;4982067;28;20038;-70
2023/02/27 03:05:06;;;;;;;5.43;1.07;;;;;;;-0.81;100.00;101616.75;4993744;28;20451;-70
2023/02/27 03:07:41;;;;;;;4.67;1.67;;;;;;;-0.84;100.00;101613.97;5005643;28;20044;-69
2023/02/27 03:10:21;;;;;;;4.00;1.07;;;;;;;-0.85;100.00;101609.63;5008907;28;20033;-70
2023/02/27 03:12:53;;;;;;;2.57;1.07;;;;;;;-0.99;100.00;101616.59;4989914;28;20042;-69
2023/02/27 03:15:24;;;;;;;2.88;1.10;;;;;;;-1.01;100.00;101619.09;5006919;28;20037;-69
2023/02/27 03:17:58;;;;;;;3.83;1.50;;;;;;;-1.03;100.00;101631.06;5013587;28;20034;-70
2023/02/27 03:20:40;;;;;;;3.80;1.33;;;;;;;-0.96;100.00;101625.44;4993129;28;20025;-70
2023/02/27 03:23:13;;;;;;;3.97;1.67;;;;;;;-0.92;100.00;101632.59;5007458;28;20080;-69
2023/02/27 03:25:45;;;;;;;4.80;1.40;;;;;;;-0.92;100.00;101636.88;4995119;28;20041;-70
2023/02/27 03:28:16;;;;;;;5.67;1.37;;;;;;;-0.89;100.00;101629.28;4995819;28;20768;-70
2023/02/27 03:30:59;;;;;;;3.65;1.02;;;;;;;-0.78;100.00;101637.69;4980494;28;20038;-70
2023/02/27 03:33:34;;;;;;;;;;;;;;;-0.75;100.00;101640.44;4996152;28;20500;-70
2023/02/27 03:36:08;;;;;;;4.27;1.63;;;;;;;-0.80;100.00;101639.28;4979934;28;19921;-70
2023/02/27 03:38:43;;;;;;;4.10;1.10;;;;;;;-0.72;100.00;101638.03;4995389;28;20412;-70
2023/02/27 03:41:34;;;;;;;4.30;1.20;;;;;;;-0.66;100.00;101646.13;4995363;28;20382;-70
2023/02/27 03:44:32;;;;;;;4.30;1.40;;;;;;;-0.70;100.00;101647.69;4995142;28;20120;-70
2023/02/27 03:46:57;;;;;;;5.00;1.40;;;;;;;-0.67;100.00;101637.47;5012350;28;20404;-69
2023/02/27 03:49:23;;;;;;;4.03;1.40;;;;;;;-0.68;100.00;101640.88;4995102;28;20033;-69
2023/02/27 03:51:48;;;;;;;5.60;1.87;;;;;;;-0.69;100.00;101643.38;4992639;28;20033;-70
2023/02/27 03:54:19;;;;;;;2.70;1.10;;;;;;;-0.72;100.00;101648.41;4995264;28;20057;-69
2023/02/27 03:56:59;;;;;;;4.67;1.37;;;;;;;-0.81;100.00;101647.84;5004234;28;20096;-69
2023/02/27 03:59:26;;;;;;;2.73;0.97;;;;;;;-0.97;99.99;101654.75;4994948;28;20030;-69
2023/02/27 04:01:53;;;;;;;2.07;0.83;;;;;;;-1.06;99.81;101659.38;4995004;28;20033;-69
2023/02/27 04:04:20;;;;;;;4.63;0.80;;;;;;;-1.15;100.00;101664.03;5012659;28;20464;-68
2023/02/27 04:07:27;;;;;;;5.00;0.70;;;;;;;-1.16;99.98;101664.84;5007053;28;20040;-69
2023/02/27 04:10:21;;;;;;;1.77;0.60;;;;;;;-1.16;100.00;101670.00;5006296;28;20408;-69
2023/02/27 04:13:09;;;;;;;3.67;0.73;;;;;;;-1.08;99.26;101671.34;5006371;28;20038;-70
2023/02/27 04:16:08;;;;;;;2.93;0.70;;;;;;;-1.03;99.95;101679.41;5003558;28;20030;-69
2023/02/27 04:19:06;;;;;;;3.70;0.70;;;;;;;-0.99;99.11;101689.16;5005996;28;20058;-69
2023/02/27 04:21:47;;;;;;;3.33;0.70;;;;;;;-0.97;98.08;101685.88;5005395;28;20120;-69
2023/02/27 04:24:34;;;;;;;4.87;1.10;;;;;;;-0.94;99.55;101692.91;5012186;28;20480;-70
2023/02/27 04:27:11;;;;;;;4.30;1.57;;;;;;;-1.01;100.00;101704.59;5010239;28;20034;-70
2023/02/27 04:29:49;;;;;;;3.23;1.70;;;;;;;-0.99;100.00;101699.53;5004805;28;20455;-69
2023/02/27 04:32:21;;;;;;;4.37;1.50;;;;;;;-1.01;100.00;101702.00;5011693;28;20563;-70
2023/02/27 04:35:14;;;;;;;4.70;1.77;;;;;;;-1.06;100.00;101712.91;5011325;28;20042;-69
2023/02/27 04:37:58;;;;;;;4.30;1.80;;;;;;;-0.97;100.00;101713.44;5009566;28;20137;-70
2023/02/27 04:40:32;;;;;;;7.30;1.13;;;;;;;-0.95;100.00;101717.91;5007256;28;20044;-70
2023/02/27 04:43:00;;;;;;;4.17;1.70;;;;;;;-0.85;100.00;101711.59;5011867;28;20088;-70
2023/02/27 04:45:27;;;;;;;4.63;1.37;;;;;;;-0.82;100.00;101711.75;5001176;28;20026;-69
2023/02/27 04:47:59;;;;;;;7.23;1.33;;;;;;;-0.71;100.00;101712.38;4999226;28;20543;-70
2023/02/27 04:50:31;;;;;;;3.65;1.20;;;;;;;-0.62;100.00;101712.94;4995671;28;20034;-69
2023/02/27 04:53:03;;;;;;;4.18;0.85;;;;;;;-0.58;100.00;101714.00;5009059;28;20038;-70
2023/02/27 04:55:34;;;;;;;1.80;0.90;;;;;;;-0.50;100.00;101713.66;5010079;28;20143;-69
2023/02/27 04:58:14;;;;;;;3.53;1.00;;;;;;;-0.50;100.00;101710.13;5010795;28;20037;-70
2023/02/27 05:00:44;;;;;;;3.03;1.10;;;;;;;-0.59;100.00;101713.09;5000218;28;20551;-70
2023/02/27 05:03:15;;;;;;;3.37;1.23;;;;;;;-0.70;100.00;101709.00;5007950;28;20030;-70
2023/02/27 05:05:44;;;;;;;2.10;0.87;;;;;;;-0.82;100.00;101716.06;5010922;28;20144;-69
2023/02/27 05:08:28;;;;;;;4.07;1.00;;;;;;;-0.93;100.00;101721.50;4993880;28;20048;-70
2023/02/27 05:11:04;;;;;;;3.77;1.17;;;;;;;-1.01;100.00;101716.69;5008074;28;20038;-70
2023/02/27 05:13:40;;;;;;;3.70;1.03;;;;;;;-0.98;100.00;101716.84;5003746;28;20041;-70
2023/02/27 05:16:15;;;;;;;4.80;0.93;;;;;;;-0.93;100.00;101726.69;5010838;28;20034;-70
2023/02/27 05:18:41;;;;;;;2.63;0.80;;;;;;;-0.89;100.00;101715.72;5011291;28;20041;-69
2023/02/27 05:21:29;;;;;;;4.10;1.10;;;;;;;-0.75;100.00;101710.44;5010516;28;20049;-70
2023/02/27 05:24:03;;;;;;;4.27;1.07;;;;;;;-0.67;100.00;101712.66;5007685;28;20030;-70
2023/02/27 05:26:57;;;;;;;14.60;7.77;;;;;;;-0.55;100.00;101712.50;5002459;28;20580;-70
2023/02/27 05:29:32;;;;;;;5.03;1.90;;;;;;;-0.51;100.00;101714.44;4985586;28;20109;-70
2023/02/27 05:32:13;;;;;;;6.70;2.07;;;;;;;-0.50;100.00;101713.66;4989141;28;20129;-70
2023/02/27 05:34:48;;;;;;;5.80;1.60;;;;;;;-0.52;100.00;101710.06;4990869;28;20072;-70
2023/02/27 05:37:24;;;;;;;5.17;1.60;;;;;;;-0.52;100.00;101724.75;4999888;28;20049;-70
2023/02/27 05:39:51;;;;;;;5.10;1.97;;;;;;;-0.59;100.00;101726.06;4997325;28;20061;-70
2023/02/27 05:42:25;;;;;;;4.30;1.33;;;;;;;-0.64;100.00;101724.91;4995194;28;20035;-70
2023/02/27 05:44:56;;;;;;;4.93;1.60;;;;;;;-0.60;100.00;101720.78;4998107;28;20038;-70
2023/02/27 05:47:26;;;;;;;2.67;1.43;;;;;;;-0.54;100.00;101727.22;4999198;28;20489;-70
2023/02/27 05:50:03;;;;;;;3.77;1.70;;;;;;;-0.50;100.00;101729.22;4999650;28;20038;-70
2023/02/27 05:52:31;;;;;;;6.73;2.10;;;;;;;-0.50;100.00;101737.00;4998798;28;20030;-70
2023/02/27 05:55:14;;;;;;;6.93;2.10;;;;;;;-0.37;100.00;101730.78;5007878;28;20068;-70
2023/02/27 05:57:44;;;;;;;7.23;2.40;;;;;;;-0.28;100.00;101738.22;5003164;28;20121;-70
2023/02/27 06:00:13;;;;;;;7.03;3.50;;;;;;;-0.24;100.00;101737.56;5003883;28;20562;-69
2023/02/27 06:02:39;;;;;;;8.30;4.67;;;;;;;-0.40;100.00;101741.00;5008904;28;20034;-70
2023/02/27 06:05:07;;;;;;;36.33;19.80;;;;;;;-0.53;100.00;101743.69;4994114;28;20120;-70
2023/02/27 06:07:34;;;;;;;10.93;4.07;;;;;;;-0.45;100.00;101740.75;5011641;28;20037;-70
2023/02/27 06:09:59;;;;;;;7.47;2.57;;;;;;;-0.40;100.00;101745.28;5007103;28;20038;-70
2023/02/27 06:12:25;;;;;;;6.40;2.33;;;;;;;-0.41;100.00;101754.78;5014569;28;20404;-69
2023/02/27 06:14:50;;;;;;;5.90;2.23;;;;;;;-0.42;100.00;101763.34;5014417;28;20042;-70
2023/02/27 06:17:16;;;;;;;6.00;1.83;;;;;;;-0.36;100.00;101758.53;5013909;28;20036;-70
2023/02/27 06:19:41;;;;;;;8.20;2.83;;;;;;;-0.33;100.00;101760.41;5014424;28;20125;-70
2023/02/27 06:22:08;;;;;;;6.00;2.40;;;;;;;-0.31;100.00;101761.41;5011002;28;20033;-70
2023/02/27 06:24:33;;;;;;;4.90;2.23;;;;;;;-0.31;100.00;101754.50;5014340;28;20095;-70
2023/02/27 06:26:59;;;;;;;3.67;2.10;;;;;;;-0.29;100.00;101765.88;5002967;28;20034;-70
2023/02/27 06:29:24;;;;;;;6.73;2.90;;;;;;;-0.37;100.00;101761.03;5001402;28;20022;-70
2023/02/27 06:31:49;;;;;;;5.63;2.27;;;;;;;-0.38;100.00;101759.25;5011738;28;20285;-70
2023/02/27 06:34:15;;;;;;;6.93;2.47;;;;;;;-0.45;100.00;101769.28;5010850;28;20041;-69
2023/02/27 06:36:40;;;;;;;5.47;2.33;;;;;;;-0.51;100.00;101774.09;5010912;28;20041;-70
2023/02/27 06:39:05;;;;;;;4.23;1.90;;;;;;;-0.51;100.00;101768.91;5014038;28;20439;-70
2023/02/27 06:41:31;;;;;;;7.53;2.87;;;;;;;-0.54;100.00;101771.31;5013892;28;20045;-70
2023/02/27 06:43:56;;;;;;;4.70;1.97;;;;;;;-0.58;100.00;101766.75;5014148;28;20038;-70
2023/02/27 06:46:22;;;;;;;7.17;2.17;;;;;;;-0.54;100.00;101767.84;5013367;28;20037;-69
2023/02/27 06:48:48;;;;;;;6.80;2.60;;;;;;;-0.49;100.00;101767.28;5013928;28;20037;-70
2023/02/27 06:51:13;;;;;;;5.70;2.37;;;;;;;-0.45;100.00;101773.53;5008212;28;20046;-69
2023/02/27 06:53:38;;;;;;;8.70;2.90;;;;;;;-0.46;100.00;101764.88;5006258;28;20030;-70
2023/02/27 06:56:04;;;;;;;4.57;2.10;;;;;;;-0.33;100.00;101769.06;5005692;28;20709;-70
2023/02/27 06:58:29;;;;;;;7.93;2.47;;;;;;;-0.15;100.00;101765.75;5010783;28;20061;-70
2023/02/27 07:00:58;;;;;;;10.00;2.67;;;;;;;-0.02;100.00;101769.13;5013386;28;20485;-69
2023/02/27 07:03:24;;;;;;;8.67;2.43;;;;;;;0.08;100.00;101773.16;5013546;28;20038;-70
2023/02/27 07:05:49;;;;;;;7.63;2.63;;;;;;;0.18;99.78;101774.53;5011447;28;20029;-70
2023/02/27 07:08:16;;;;;;;8.40;3.13;;;;;;;0.25;99.30;101770.59;5013375;28;20072;-70
2023/02/27 07:10:45;;;;;;;6.47;3.33;;;;;;;0.28;99.70;101775.94;5013271;28;20052;-70
2023/02/27 07:13:11;;;;;;;7.53;2.50;;;;;;;0.34;99.26;101782.38;5013462;28;20046;-70
2023/02/27 07:15:36;;;;;;;7.00;2.53;;;;;;;0.46;98.55;101781.25;5012767;28;20386;-70
2023/02/27 07:18:02;;;;;;;5.87;2.20;;;;;;;0.52;97.36;101782.47;5013236;28;20444;-70
2023/02/27 07:20:27;;;;;;;8.85;3.22;;;;;;;0.59;97.18;101782.00;5010937;28;20488;-70
2023/02/27 07:22:52;;;;;;;6.18;2.65;;;;;;;0.64;96.80;101782.25;5012918;28;20033;-70
2023/02/27 07:25:17;;;;;;;5.73;2.37;;;;;;;0.70;96.33;101782.56;5008276;28;20026;-70
2023/02/27 07:27:44;;;;;;;6.97;2.92;;;;;;;0.77;95.71;101784.69;5012855;28;20452;-70
2023/02/27 07:30:10;;;;;;;6.30;2.50;;;;;;;0.81;95.49;101781.47;5012956;28;20038;-70
2023/02/27 07:32:36;;;;;;;6.10;3.13;;;;;;;0.84;94.68;101780.75;5012640;28;20038;-70
2023/02/27 07:35:03;;;;;;;8.40;3.10;;;;;;;0.85;95.35;101788.59;5012856;28;20053;-70
2023/02/27 07:37:28;;;;;;;6.97;2.50;;;;;;;0.93;95.55;101782.91;5012327;28;20397;-70
2023/02/27 07:39:54;;;;;;;7.13;3.33;;;;;;;0.92;94.99;101789.84;5008316;28;20037;-70
2023/02/27 07:42:20;;;;;;;5.22;2.40;;;;;;;0.93;95.14;101788.13;5007672;28;20042;-70
2023/02/27 07:44:45;;;;;;;7.03;2.85;;;;;;;0.89;95.09;101789.63;4997510;28;20041;-70
2023/02/27 07:47:11;;;;;;;9.30;3.28;;;;;;;0.86;94.96;101790.41;5025866;23;20019;-77
2023/02/27 07:49:36;;;;;;;12.10;3.03;;;;;;;0.85;95.56;101801.59;5042039;28;20037;-77
2023/02/27 07:52:02;;;;;;;8.00;3.47;;;;;;;0.83;95.71;101798.00;5040805;28;20044;-77
2023/02/27 07:54:27;;;;;;;6.75;3.10;;;;;;;0.85;95.21;101806.78;5036250;28;20075;-77
2023/02/27 07:56:52;;;;;;;6.05;2.92;;;;;;;0.78;94.93;101808.97;5038315;28;20033;-77
2023/02/27 07:59:18;;;;;;;7.53;3.08;;;;;;;0.59;95.21;101809.69;5023856;28;20054;-77
2023/02/27 08:01:43;;;;;;;7.40;3.10;;;;;;;0.66;96.43;101811.81;5022382;28;20033;-77
2023/02/27 08:04:08;;;;;;;6.72;2.92;;;;;;;0.89;96.21;101805.25;5024349;28;20079;-77
2023/02/27 08:06:33;;;;;;;7.07;3.20;;;;;;;1.16;95.99;101811.03;5023727;28;20111;-77
2023/02/27 08:08:59;;;;;;;7.97;3.25;;;;;;;1.39;95.38;101816.50;5020469;28;20534;-77
2023/02/27 08:11:24;;;;;;;6.88;3.42;;;;;;;1.59;94.46;101823.63;5027248;28;20446;-77
2023/02/27 08:13:49;;;;;;;9.30;4.55;;;;;;;1.75;92.80;101814.88;5023104;28;20029;-77
2023/02/27 08:16:15;;;;;;;10.27;4.35;;;;;;;1.84;93.54;101825.78;5023057;28;20033;-77
2023/02/27 08:18:40;;;;;;;8.80;4.10;;;;;;;1.86;92.77;101828.44;5021980;28;20128;-77
2023/02/27 08:21:05;;;;;;;9.57;3.97;;;;;;;1.93;92.42;101826.22;5025097;28;20052;-77
2023/02/27 08:23:33;;;;;;;9.90;3.67;;;;;;;2.02;92.17;101820.59;5026172;28;20073;-77
2023/02/27 08:25:59;;;;;;;6.35;3.08;;;;;;;2.02;90.98;101815.38;5023614;28;20113;-77
2023/02/27 08:28:26;;;;;;;5.05;1.80;;;;;;;1.92;89.12;101820.94;5022807;28;20041;-77
2023/02/27 08:30:52;;;;;;;3.63;1.45;;;;;;;1.77;89.78;101828.00;5020632;28;20145;-77
2023/02/27 08:33:17;;;;;;;3.72;1.20;;;;;;;1.91;89.81;101827.88;5021167;28;20041;-77
2023/02/27 08:35:43;;;;;;;4.88;1.50;;;;;;;2.03;90.17;101829.28;5024158;28;20037;-77
2023/02/27 08:38:08;;;;;;;3.90;1.48;;;;;;;2.22;90.10;101823.25;5026891;28;20033;-77
2023/02/27 08:40:33;;;;;;;2.80;1.33;;;;;;;2.22;88.58;101823.25;5028592;28;20066;-77
2023/02/27 08:42:59;;;;;;;2.85;1.60;;;;;;;2.22;88.39;101818.94;5020312;28;20041;-77
2023/02/27 08:45:24;;;;;;;3.67;1.63;;;;;;;2.11;88.25;101828.84;5022700;28;20045;-77
2023/02/27 08:47:49;;;;;;;4.25;1.50;;;;;;;2.14;88.47;101823.78;5023226;28;20037;-77
2023/02/27 08:50:15;;;;;;;3.95;1.55;;;;;;;2.11;87.90;101823.63;5001075;28;20088;-77
2023/02/27 08:52:40;;;;;;;6.00;3.55;;;;;;;2.07;88.55;101829.53;5026913;28;20075;-77
2023/02/27 08:55:06;;;;;;;4.35;1.55;;;;;;;2.10;88.72;101823.56;5001891;28;20038;-77
2023/02/27 08:57:32;;;;;;;4.97;1.58;;;;;;;2.11;89.41;101826.22;5022607;28;20053;-77
2023/02/27 08:59:57;;;;;;;5.60;1.52;;;;;;;2.14;89.13;101830.69;5019412;28;20064;-77
2023/02/27 09:02:25;;;;;;;5.88;1.63;;;;;;;2.10;88.64;101834.88;5023535;28;20523;-77
2023/02/27 09:04:51;;;;;;;4.65;1.20;;;;;;;2.11;89.47;101839.25;5022019;28;20037;-77
2023/02/27 09:07:16;;;;;;;2.83;1.13;;;;;;;2.14;89.31;101828.97;5026609;28;20489;-77
2023/02/27 09:09:42;;;;;;;4.32;1.15;;;;;;;2.35;89.09;101831.72;5022698;28;20106;-77
2023/02/27 09:12:07;;;;;;;2.80;0.80;;;;;;;2.58;88.08;101824.13;5027171;28;20026;-77
2023/02/27 09:14:32;;;;;;;3.65;1.17;;;;;;;2.57;86.96;101833.66;5023105;28;20456;-77
2023/02/27 09:16:57;;;;;;;5.00;1.48;;;;;;;2.54;86.80;101838.72;5025032;28;20400;-77
2023/02/27 09:19:23;;;;;;;6.22;1.10;;;;;;;2.58;85.29;101844.97;5026045;28;20385;-77
2023/02/27 09:21:48;;;;;;;4.05;1.25;;;;;;;2.46;86.85;101834.84;5025900;28;20463;-77
2023/02/27 09:24:13;;;;;;;2.60;1.10;;;;;;;2.62;86.22;101840.00;5021595;28;20038;-77
2023/02/27 09:26:39;;;;;;;3.92;1.40;;;;;;;2.80;86.16;101846.84;5026350;28;20079;-77
2023/02/27 09:29:04;;;;;;;2.80;1.00;;;;;;;2.89;84.35;101847.31;5026192;28;20025;-77
2023/02/27 09:31:29;;;;;;;4.55;1.00;;;;;;;3.04;84.89;101849.72;5024386;28;20440;-77
2023/02/27 09:33:56;;;;;;;2.50;0.77;;;;;;;3.24;84.63;101855.81;5023800;28;20045;-77
2023/02/27 09:36:22;;;;;;;1.98;0.70;;;;;;;3.50;84.93;101855.25;5024704;28;20041;-77
2023/02/27 09:38:47;;;;;;;2.78;0.85;;;;;;;3.41;81.25;101854.88;5022663;28;20120;-77
2023/02/27 09:41:34;;;;;;;3.83;1.00;;;;;;;3.39;82.02;101856.50;5011120;28;20392;-77
2023/02/27 09:44:00;;;;;;;3.42;1.00;;;;;;;3.31;81.22;101870.94;5020144;28;20116;-77
2023/02/27 09:46:27;;;;;;;3.33;0.93;;;;;;;3.55;82.22;101855.47;5023333;28;20579;-77
2023/02/27 09:48:56;;;;;;;2.20;0.93;;;;;;;3.85;81.01;101861.13;5020351;28;20389;-77
2023/02/27 09:51:22;;;;;;;3.08;1.00;;;;;;;4.06;80.98;101852.38;5029881;28;20464;-77
2023/02/27 09:53:51;;;;;;;4.93;1.52;;;;;;;4.21;78.10;101847.78;5022330;28;20395;-77
2023/02/27 09:56:31;;;;;;;5.22;1.50;;;;;;;4.22;77.61;101848.66;5028162;28;20133;-77
2023/02/27 09:59:12;;;;;;;4.00;1.10;;;;;;;4.42;79.97;101847.75;5022021;28;20029;-77
2023/02/27 10:01:56;;;;;;;3.17;1.02;;;;;;;4.36;77.29;101852.75;5025389;28;20168;-78
2023/02/27 10:04:27;;;;;;;5.22;1.27;;;;;;;4.20;78.13;101846.00;5021417;28;20113;-77
2023/02/27 10:07:05;;;;;;;3.65;1.08;;;;;;;3.97;77.48;101844.19;5019682;28;20404;-77
2023/02/27 10:09:53;;;;;;;6.65;1.48;;;;;;;3.66;78.55;101853.31;5019116;28;20091;-77
2023/02/27 10:12:51;;;;;;;3.10;1.15;;;;;;;3.60;76.93;101845.22;5021593;28;20034;-77
2023/02/27 10:15:25;;;;;;;4.60;0.85;;;;;;;3.17;75.65;101856.38;5028651;28;20487;-77
2023/02/27 10:18:13;;;;;;;2.83;1.10;;;;;;;2.91;77.19;101850.88;5024469;28;20057;-77
2023/02/27 10:20:47;;;;;;;2.85;0.75;;;;;;;2.98;78.79;101849.44;4997853;28;20498;-77
2023/02/27 10:23:17;;;;;;;3.10;1.02;;;;;;;3.21;77.86;101855.69;5020356;28;20527;-77
2023/02/27 10:25:47;;;;;;;2.80;0.50;;;;;;;3.42;76.48;101846.19;5022648;28;20481;-77
2023/02/27 10:28:18;;;;;;;8.13;6.75;;;;;;;3.71;76.50;101838.75;5024163;28;20124;-77
2023/02/27 10:30:47;;;;;;;2.53;1.17;;;;;;;4.00;75.11;101833.84;5025410;28;20029;-77
2023/02/27 10:33:37;;;;;;;3.33;0.80;;;;;;;4.27;72.38;101829.75;5027629;28;20033;-77
2023/02/27 10:36:10;;;;;;;2.47;0.80;;;;;;;4.27;71.18;101832.38;5023026;28;20038;-77
2023/02/27 10:38:43;;;;;;;4.15;0.80;;;;;;;4.20;70.35;101830.34;5024472;28;20080;-77
2023/02/27 10:41:11;;;;;;;1.48;0.60;;;;;;;4.04;70.77;101836.66;5026397;28;20029;-77
2023/02/27 10:43:37;;;;;;;3.40;1.35;;;;;;;4.06;71.69;101831.47;5031337;28;20094;-77
2023/02/27 10:46:11;;;;;;;2.33;0.40;;;;;;;4.35;72.32;101833.56;5025694;28;20029;-77
2023/02/27 10:48:36;;;;;;;3.03;0.80;;;;;;;4.64;70.62;101825.97;5023135;28;20045;-77
2023/02/27 10:51:19;;;;;;;5.32;0.70;;;;;;;4.79;68.90;101830.88;5028257;28;20041;-77
2023/02/27 10:53:44;;;;;;;4.53;0.82;;;;;;;4.71;67.09;101835.81;5005181;28;20060;-77
2023/02/27 10:56:17;;;;;;;3.55;0.60;;;;;;;4.20;68.51;101838.19;5023978;28;20488;-77
2023/02/27 10:58:43;;;;;;;2.05;0.40;;;;;;;4.16;71.54;101838.88;5021940;28;20049;-77
2023/02/27 11:01:11;;;;;;;4.65;0.70;;;;;;;4.42;72.04;101833.81;5026077;28;20025;-78
2023/02/27 11:03:42;;;;;;;2.58;0.60;;;;;;;4.43;71.68;101835.56;5026464;28;20026;-78
2023/02/27 11:06:12;;;;;;;1.98;0.55;;;;;;;4.34;73.00;101831.75;5024396;28;20396;-77
2023/02/27 11:08:38;;;;;;;2.55;0.93;;;;;;;4.36;73.42;101827.50;5023749;28;20042;-77
2023/02/27 11:11:06;;;;;;;5.35;0.73;;;;;;;4.47;75.08;101822.69;5025548;28;20044;-78
2023/02/27 11:13:35;;;;;;;2.85;0.90;;;;;;;4.41;73.97;101834.66;5022979;28;20175;-78
2023/02/27 11:16:06;;;;;;;4.72;1.33;;;;;;;4.07;75.92;101818.50;5025220;28;20412;-77
2023/02/27 11:18:34;;;;;;;4.15;1.20;;;;;;;3.97;77.38;101833.72;5025465;28;20034;-78
2023/02/27 11:21:19;;;;;;;3.42;0.95;;;;;;;4.13;77.23;101820.47;5025388;28;20025;-78
2023/02/27 11:23:55;;;;;;;4.55;1.00;;;;;;;4.25;77.04;101820.97;5031132;28;20033;-78
2023/02/27 11:26:35;;;;;;;3.22;1.30;;;;;;;4.39;76.33;101809.31;5020130;28;20029;-78
2023/02/27 11:29:13;;;;;;;7.07;1.90;;;;;;;4.52;75.97;101812.41;5023463;28;20045;-78
2023/02/27 11:31:51;;;;;;;3.55;0.93;;;;;;;4.53;74.69;101816.81;5028505;28;20412;-78
2023/02/27 11:34:27;;;;;;;3.58;0.75;;;;;;;4.78;74.41;101811.69;5022602;28;20433;-77
2023/02/27 11:36:59;;;;;;;2.70;0.98;;;;;;;4.75;74.39;101806.34;5029403;28;20387;-77
2023/02/27 11:39:46;;;;;;;4.50;1.02;;;;;;;4.69;74.29;101811.38;5024401;28;20041;-78
2023/02/27 11:42:25;;;;;;;3.58;1.00;;;;;;;4.76;73.58;101808.13;5026384;28;20056;-77